sensor_id;sensor_type;location;lat;lon;timestamp;pressure;altitude;pressure_sealevel;temperature;humidity
84758;BME280;74981;52.476;16.656;2023-12-28T00:02:19;100442.93;;;1.58;83.31
84758;BME280;74981;52.476;16.656;2023-12-28T00:07:20;100441.69;;;1.61;83.43
84758;BME280;74981;52.476;16.656;2023-12-28T00:12:22;100439.84;;;1.63;83.45
84758;BME280;74981;52.476;16.656;2023-12-28T00:17:24;100447.42;;;1.67;83.37
84758;BME280;74981;52.476;16.656;2023-12-28T00:22:26;100447.89;;;1.71;83.36
84758;BME280;74981;52.476;16.656;2023-12-28T00:27:27;100437.29;;;1.78;82.99
84758;BME280;74981;52.476;16.656;2023-12-28T00:32:29;100438.79;;;1.80;82.92
84758;BME280;74981;52.476;16.656;2023-12-28T00:37:31;100428.94;;;1.79;82.83
84758;BME280;74981;52.476;16.656;2023-12-28T00:42:33;100417.30;;;1.82;82.64
84758;BME280;74981;52.476;16.656;2023-12-28T00:47:36;100414.75;;;1.84;82.39
84758;BME280;74981;52.476;16.656;2023-12-28T00:52:38;100402.09;;;1.82;82.60
84758;BME280;74981;52.476;16.656;2023-12-28T00:57:40;100395.56;;;1.79;82.53
84758;BME280;74981;52.476;16.656;2023-12-28T01:02:42;100383.23;;;1.85;82.67
84758;BME280;74981;52.476;16.656;2023-12-28T01:07:44;100377.55;;;1.89;82.29
84758;BME280;74981;52.476;16.656;2023-12-28T01:12:45;100377.56;;;1.89;82.37
84758;BME280;74981;52.476;16.656;2023-12-28T01:17:47;100375.70;;;1.90;82.40
84758;BME280;74981;52.476;16.656;2023-12-28T01:22:49;100381.67;;;1.97;82.26
84758;BME280;74981;52.476;16.656;2023-12-28T01:27:51;100382.14;;;2.02;82.23
84758;BME280;74981;52.476;16.656;2023-12-28T01:32:53;100371.54;;;2.02;82.25
84758;BME280;74981;52.476;16.656;2023-12-28T01:37:55;100371.04;;;1.98;82.28
84758;BME280;74981;52.476;16.656;2023-12-28T01:42:57;100354.03;;;1.99;82.36
84758;BME280;74981;52.476;16.656;2023-12-28T01:48:00;100337.23;;;2.06;82.34
84758;BME280;74981;52.476;16.656;2023-12-28T01:53:02;100309.23;;;2.10;82.13
84758;BME280;74981;52.476;16.656;2023-12-28T01:58:04;100293.09;;;2.11;82.08
84758;BME280;74981;52.476;16.656;2023-12-28T02:03:06;100291.54;;;2.08;82.27
84758;BME280;74981;52.476;16.656;2023-12-28T02:08:08;100287.70;;;2.13;82.10
84758;BME280;74981;52.476;16.656;2023-12-28T02:13:10;100276.69;;;2.20;82.29
84758;BME280;74981;52.476;16.656;2023-12-28T02:18:16;100259.81;;;2.25;82.03
84758;BME280;74981;52.476;16.656;2023-12-28T02:23:21;100253.83;;;2.25;82.31
84758;BME280;74981;52.476;16.656;2023-12-28T02:28:23;100245.71;;;2.21;82.45
84758;BME280;74981;52.476;16.656;2023-12-28T02:33:29;100227.70;;;2.24;82.27
84758;BME280;74981;52.476;16.656;2023-12-28T02:38:37;100203.52;;;2.26;82.24
84758;BME280;74981;52.476;16.656;2023-12-28T02:43:39;100187.82;;;2.23;82.13
84758;BME280;74981;52.476;16.656;2023-12-28T02:48:44;100167.30;;;2.20;82.60
84758;BME280;74981;52.476;16.656;2023-12-28T02:53:45;100153.48;;;2.21;82.28
84758;BME280;74981;52.476;16.656;2023-12-28T02:58:47;100142.77;;;2.20;82.42
84758;BME280;74981;52.476;16.656;2023-12-28T03:03:49;100140.14;;;2.16;82.64
84758;BME280;74981;52.476;16.656;2023-12-28T03:08:51;100131.84;;;2.10;82.85
84758;BME280;74981;52.476;16.656;2023-12-28T03:13:52;100134.02;;;2.12;82.85
84758;BME280;74981;52.476;16.656;2023-12-28T03:18:54;100129.74;;;2.16;82.82
84758;BME280;74981;52.476;16.656;2023-12-28T03:23:56;100126.66;;;2.17;83.15
84758;BME280;74981;52.476;16.656;2023-12-28T03:28:58;100119.73;;;2.18;83.13
84758;BME280;74981;52.476;16.656;2023-12-28T03:33:59;100113.81;;;2.23;82.92
84758;BME280;74981;52.476;16.656;2023-12-28T03:39:01;100122.84;;;2.28;83.10
84758;BME280;74981;52.476;16.656;2023-12-28T03:44:03;100116.16;;;2.30;82.95
84758;BME280;74981;52.476;16.656;2023-12-28T03:49:05;100117.19;;;2.28;82.81
84758;BME280;74981;52.476;16.656;2023-12-28T03:54:07;100111.14;;;2.26;82.94
84758;BME280;74981;52.476;16.656;2023-12-28T03:59:09;100102.17;;;2.31;82.87
84758;BME280;74981;52.476;16.656;2023-12-28T04:04:11;100100.76;;;2.36;82.70
84758;BME280;74981;52.476;16.656;2023-12-28T04:09:13;100106.94;;;2.40;82.69
84758;BME280;74981;52.476;16.656;2023-12-28T04:14:15;100116.92;;;2.38;82.69
84758;BME280;74981;52.476;16.656;2023-12-28T04:19:17;100131.34;;;2.36;82.71
84758;BME280;74981;52.476;16.656;2023-12-28T04:24:18;100127.90;;;2.41;82.52
84758;BME280;74981;52.476;16.656;2023-12-28T04:29:20;100114.44;;;2.44;82.35
84758;BME280;74981;52.476;16.656;2023-12-28T04:34:22;100128.64;;;2.43;82.37
84758;BME280;74981;52.476;16.656;2023-12-28T04:39:24;100126.86;;;2.40;82.68
84758;BME280;74981;52.476;16.656;2023-12-28T04:44:25;100118.61;;;2.36;82.54
84758;BME280;74981;52.476;16.656;2023-12-28T04:49:27;100108.46;;;2.41;82.62
84758;BME280;74981;52.476;16.656;2023-12-28T04:54:29;100106.39;;;2.49;82.77
84758;BME280;74981;52.476;16.656;2023-12-28T04:59:31;100092.45;;;2.54;82.80
84758;BME280;74981;52.476;16.656;2023-12-28T05:04:33;100090.74;;;2.56;82.69
84758;BME280;74981;52.476;16.656;2023-12-28T05:09:34;100087.41;;;2.61;82.35
84758;BME280;74981;52.476;16.656;2023-12-28T05:14:36;100093.63;;;2.72;82.29
84758;BME280;74981;52.476;16.656;2023-12-28T05:19:38;100093.91;;;2.82;82.12
84758;BME280;74981;52.476;16.656;2023-12-28T05:24:40;100094.84;;;2.87;82.13
84758;BME280;74981;52.476;16.656;2023-12-28T05:29:41;100086.80;;;2.88;81.88
84758;BME280;74981;52.476;16.656;2023-12-28T05:34:43;100070.52;;;2.91;81.74
84758;BME280;74981;52.476;16.656;2023-12-28T05:39:45;100067.93;;;2.98;81.66
84758;BME280;74981;52.476;16.656;2023-12-28T05:44:47;100074.15;;;3.11;81.38
84758;BME280;74981;52.476;16.656;2023-12-28T05:49:49;100083.70;;;3.20;81.49
84758;BME280;74981;52.476;16.656;2023-12-28T05:54:50;100082.67;;;3.25;81.05
84758;BME280;74981;52.476;16.656;2023-12-28T05:59:52;100083.53;;;3.28;81.11
84758;BME280;74981;52.476;16.656;2023-12-28T06:04:54;100086.98;;;3.32;80.85
84758;BME280;74981;52.476;16.656;2023-12-28T06:09:56;100100.52;;;3.47;80.86
84758;BME280;74981;52.476;16.656;2023-12-28T06:14:57;100120.48;;;3.64;80.77
84758;BME280;74981;52.476;16.656;2023-12-28T06:19:59;100142.01;;;3.76;81.29
84758;BME280;74981;52.476;16.656;2023-12-28T06:25:01;100156.00;;;3.79;82.16
84758;BME280;74981;52.476;16.656;2023-12-28T06:30:03;100156.61;;;3.80;82.33
84758;BME280;74981;52.476;16.656;2023-12-28T06:35:07;100148.74;;;3.90;82.20
84758;BME280;74981;52.476;16.656;2023-12-28T06:40:11;100146.61;;;4.01;82.52
84758;BME280;74981;52.476;16.656;2023-12-28T06:45:13;100146.30;;;4.13;82.74
84758;BME280;74981;52.476;16.656;2023-12-28T06:50:16;100149.09;;;4.22;82.66
84758;BME280;74981;52.476;16.656;2023-12-28T06:55:17;100145.84;;;4.35;82.42
84758;BME280;74981;52.476;16.656;2023-12-28T07:00:19;100153.33;;;4.48;82.33
84758;BME280;74981;52.476;16.656;2023-12-28T07:05:21;100162.16;;;4.56;82.55
84758;BME280;74981;52.476;16.656;2023-12-28T07:10:23;100174.04;;;4.61;82.31
84758;BME280;74981;52.476;16.656;2023-12-28T07:15:25;100189.33;;;4.71;82.63
84758;BME280;74981;52.476;16.656;2023-12-28T07:20:26;100187.66;;;4.80;82.48
84758;BME280;74981;52.476;16.656;2023-12-28T07:25:28;100197.46;;;4.85;82.73
84758;BME280;74981;52.476;16.656;2023-12-28T07:30:30;100198.54;;;4.88;82.66
84758;BME280;74981;52.476;16.656;2023-12-28T07:35:32;100199.16;;;4.96;82.40
84758;BME280;74981;52.476;16.656;2023-12-28T07:40:33;100211.41;;;5.04;82.36
84758;BME280;74981;52.476;16.656;2023-12-28T07:45:35;100208.14;;;5.07;82.25
84758;BME280;74981;52.476;16.656;2023-12-28T07:50:37;100209.04;;;5.10;81.95
84758;BME280;74981;52.476;16.656;2023-12-28T07:55:39;100220.95;;;5.19;81.73
84758;BME280;74981;52.476;16.656;2023-12-28T08:00:40;100228.80;;;5.29;81.95
84758;BME280;74981;52.476;16.656;2023-12-28T08:05:42;100221.90;;;5.34;81.75
84758;BME280;74981;52.476;16.656;2023-12-28T08:10:44;100216.24;;;5.38;81.74
84758;BME280;74981;52.476;16.656;2023-12-28T08:15:46;100218.42;;;5.48;81.53
84758;BME280;74981;52.476;16.656;2023-12-28T08:20:48;100229.09;;;5.57;81.52
84758;BME280;74981;52.476;16.656;2023-12-28T08:25:49;100229.40;;;5.65;81.38
84758;BME280;74981;52.476;16.656;2023-12-28T08:30:51;100230.87;;;5.72;81.24
84758;BME280;74981;52.476;16.656;2023-12-28T08:35:53;100225.18;;;5.82;81.05
84758;BME280;74981;52.476;16.656;2023-12-28T08:40:55;100228.00;;;6.00;80.76
84758;BME280;74981;52.476;16.656;2023-12-28T08:45:57;100234.15;;;6.20;80.65
84758;BME280;74981;52.476;16.656;2023-12-28T08:50:58;100238.01;;;6.38;80.11
84758;BME280;74981;52.476;16.656;2023-12-28T08:56:00;100229.46;;;6.52;80.07
84758;BME280;74981;52.476;16.656;2023-12-28T09:01:02;100243.98;;;6.60;79.73
84758;BME280;74981;52.476;16.656;2023-12-28T09:06:04;100245.86;;;6.70;78.93
84758;BME280;74981;52.476;16.656;2023-12-28T09:11:06;100244.80;;;6.79;78.73
84758;BME280;74981;52.476;16.656;2023-12-28T09:16:10;100244.17;;;6.85;78.73
84758;BME280;74981;52.476;16.656;2023-12-28T09:21:12;100253.59;;;6.92;78.27
84758;BME280;74981;52.476;16.656;2023-12-28T09:26:14;100250.36;;;7.00;78.18
84758;BME280;74981;52.476;16.656;2023-12-28T09:31:16;100250.71;;;7.11;77.72
84758;BME280;74981;52.476;16.656;2023-12-28T09:36:17;100258.27;;;7.17;77.06
84758;BME280;74981;52.476;16.656;2023-12-28T09:41:24;100252.77;;;7.19;77.17
84758;BME280;74981;52.476;16.656;2023-12-28T09:46:27;100246.84;;;7.19;77.24
84758;BME280;74981;52.476;16.656;2023-12-28T09:51:28;100249.66;;;7.20;76.78
84758;BME280;74981;52.476;16.656;2023-12-28T09:56:31;100260.11;;;7.21;76.48
84758;BME280;74981;52.476;16.656;2023-12-28T10:01:35;100263.89;;;7.27;76.53
84758;BME280;74981;52.476;16.656;2023-12-28T10:06:37;100268.02;;;7.34;76.51
84758;BME280;74981;52.476;16.656;2023-12-28T10:11:38;100260.69;;;7.36;76.20
84758;BME280;74981;52.476;16.656;2023-12-28T10:16:41;100254.04;;;7.35;76.26
84758;BME280;74981;52.476;16.656;2023-12-28T10:21:43;100263.17;;;7.36;76.03
84758;BME280;74981;52.476;16.656;2023-12-28T10:26:45;100258.98;;;7.35;75.80
84758;BME280;74981;52.476;16.656;2023-12-28T10:31:47;100251.54;;;7.35;75.81
84758;BME280;74981;52.476;16.656;2023-12-28T10:36:49;100244.14;;;7.43;75.86
84758;BME280;74981;52.476;16.656;2023-12-28T10:41:54;100241.36;;;7.49;75.71
84758;BME280;74981;52.476;16.656;2023-12-28T10:46:58;100234.02;;;7.53;75.40
84758;BME280;74981;52.476;16.656;2023-12-28T10:52:04;100237.09;;;7.55;75.08
84758;BME280;74981;52.476;16.656;2023-12-28T10:57:21;100230.70;;;7.57;75.00
84758;BME280;74981;52.476;16.656;2023-12-28T11:02:28;100230.53;;;7.59;74.98
84758;BME280;74981;52.476;16.656;2023-12-28T11:07:31;100226.70;;;7.69;75.08
84758;BME280;74981;52.476;16.656;2023-12-28T11:12:33;100225.56;;;7.79;75.09
84758;BME280;74981;52.476;16.656;2023-12-28T11:17:36;100214.54;;;7.83;74.85
84758;BME280;74981;52.476;16.656;2023-12-28T11:22:39;100213.83;;;7.85;74.99
84758;BME280;74981;52.476;16.656;2023-12-28T11:27:43;100211.40;;;7.86;74.75
84758;BME280;74981;52.476;16.656;2023-12-28T11:32:45;100213.48;;;7.89;74.91
84758;BME280;74981;52.476;16.656;2023-12-28T11:37:51;100214.63;;;7.99;74.79
84758;BME280;74981;52.476;16.656;2023-12-28T11:42:53;100206.83;;;8.07;74.58
84758;BME280;74981;52.476;16.656;2023-12-28T11:48:02;100202.84;;;8.12;74.86
84758;BME280;74981;52.476;16.656;2023-12-28T11:53:04;100205.10;;;8.15;74.58
84758;BME280;74981;52.476;16.656;2023-12-28T11:58:06;100205.92;;;8.16;74.37
84758;BME280;74981;52.476;16.656;2023-12-28T12:03:10;100204.59;;;8.15;74.46
84758;BME280;74981;52.476;16.656;2023-12-28T12:08:11;100207.19;;;8.20;74.33
84758;BME280;74981;52.476;16.656;2023-12-28T12:13:14;100208.79;;;8.24;74.24
84758;BME280;74981;52.476;16.656;2023-12-28T12:18:16;100214.61;;;8.27;74.01
84758;BME280;74981;52.476;16.656;2023-12-28T12:23:18;100211.00;;;8.32;74.10
84758;BME280;74981;52.476;16.656;2023-12-28T12:28:19;100212.34;;;8.38;73.87
84758;BME280;74981;52.476;16.656;2023-12-28T12:33:22;100207.70;;;8.33;73.82
84758;BME280;74981;52.476;16.656;2023-12-28T12:38:25;100211.95;;;8.38;73.80
84758;BME280;74981;52.476;16.656;2023-12-28T12:43:26;100214.63;;;8.55;73.36
84758;BME280;74981;52.476;16.656;2023-12-28T12:48:28;100211.44;;;8.74;73.25
84758;BME280;74981;52.476;16.656;2023-12-28T12:53:33;100204.21;;;8.81;73.02
84758;BME280;74981;52.476;16.656;2023-12-28T12:58:36;100204.80;;;8.89;72.76
84758;BME280;74981;52.476;16.656;2023-12-28T13:03:37;100205.79;;;8.94;72.36
84758;BME280;74981;52.476;16.656;2023-12-28T13:08:39;100200.84;;;8.93;72.46
84758;BME280;74981;52.476;16.656;2023-12-28T13:13:41;100204.73;;;8.83;72.05
84758;BME280;74981;52.476;16.656;2023-12-28T13:18:43;100197.15;;;8.74;72.10
84758;BME280;74981;52.476;16.656;2023-12-28T13:23:45;100192.35;;;8.65;72.36
84758;BME280;74981;52.476;16.656;2023-12-28T13:28:46;100192.63;;;8.56;72.80
84758;BME280;74981;52.476;16.656;2023-12-28T13:33:48;100182.60;;;8.48;72.77
84758;BME280;74981;52.476;16.656;2023-12-28T13:38:50;100187.71;;;8.38;72.94
84758;BME280;74981;52.476;16.656;2023-12-28T13:43:51;100183.84;;;8.22;72.99
84758;BME280;74981;52.476;16.656;2023-12-28T13:48:53;100173.39;;;8.10;73.17
84758;BME280;74981;52.476;16.656;2023-12-28T13:53:55;100167.49;;;7.98;73.45
84758;BME280;74981;52.476;16.656;2023-12-28T13:58:57;100176.45;;;7.84;73.73
84758;BME280;74981;52.476;16.656;2023-12-28T14:03:58;100183.48;;;7.68;74.13
84758;BME280;74981;52.476;16.656;2023-12-28T14:09:00;100185.30;;;7.52;74.69
84758;BME280;74981;52.476;16.656;2023-12-28T14:14:02;100191.73;;;7.43;74.80
84758;BME280;74981;52.476;16.656;2023-12-28T14:19:04;100193.34;;;7.34;74.94
84758;BME280;74981;52.476;16.656;2023-12-28T14:24:07;100202.99;;;7.22;75.26
84758;BME280;74981;52.476;16.656;2023-12-28T14:29:10;100206.30;;;7.08;75.13
84758;BME280;74981;52.476;16.656;2023-12-28T14:34:13;100211.49;;;6.91;75.82
84758;BME280;74981;52.476;16.656;2023-12-28T14:39:16;100217.59;;;6.74;75.77
84758;BME280;74981;52.476;16.656;2023-12-28T14:44:18;100223.86;;;6.62;75.90
84758;BME280;74981;52.476;16.656;2023-12-28T14:49:19;100220.63;;;6.51;76.37
84758;BME280;74981;52.476;16.656;2023-12-28T14:54:21;100213.95;;;6.35;76.58
84758;BME280;74981;52.476;16.656;2023-12-28T14:59:23;100209.66;;;6.17;76.75
84758;BME280;74981;52.476;16.656;2023-12-28T15:04:25;100210.41;;;5.97;77.20
84758;BME280;74981;52.476;16.656;2023-12-28T15:09:26;100210.03;;;5.85;77.60
84758;BME280;74981;52.476;16.656;2023-12-28T15:14:29;100204.03;;;5.75;77.94
84758;BME280;74981;52.476;16.656;2023-12-28T15:19:32;100198.40;;;5.64;78.36
84758;BME280;74981;52.476;16.656;2023-12-28T15:24:36;100209.61;;;5.52;78.70
84758;BME280;74981;52.476;16.656;2023-12-28T15:29:38;100210.80;;;5.37;78.83
84758;BME280;74981;52.476;16.656;2023-12-28T15:34:40;100210.20;;;5.29;78.89
84758;BME280;74981;52.476;16.656;2023-12-28T15:39:42;100217.29;;;5.21;79.12
84758;BME280;74981;52.476;16.656;2023-12-28T15:44:44;100222.77;;;5.11;79.57
84758;BME280;74981;52.476;16.656;2023-12-28T15:49:45;100228.20;;;5.00;79.63
84758;BME280;74981;52.476;16.656;2023-12-28T15:54:47;100234.41;;;4.89;80.23
84758;BME280;74981;52.476;16.656;2023-12-28T15:59:49;100230.84;;;4.87;80.39
84758;BME280;74981;52.476;16.656;2023-12-28T16:04:51;100229.52;;;4.89;80.63
84758;BME280;74981;52.476;16.656;2023-12-28T16:09:53;100226.74;;;4.87;80.91
84758;BME280;74981;52.476;16.656;2023-12-28T16:14:56;100228.52;;;4.79;80.98
84758;BME280;74981;52.476;16.656;2023-12-28T16:19:59;100234.91;;;4.77;81.29
84758;BME280;74981;52.476;16.656;2023-12-28T16:25:00;100229.63;;;4.76;81.31
84758;BME280;74981;52.476;16.656;2023-12-28T16:30:03;100230.30;;;4.79;81.40
84758;BME280;74981;52.476;16.656;2023-12-28T16:35:06;100227.65;;;4.79;81.46
84758;BME280;74981;52.476;16.656;2023-12-28T16:40:09;100218.48;;;4.73;81.80
84758;BME280;74981;52.476;16.656;2023-12-28T16:45:11;100209.27;;;4.68;81.74
84758;BME280;74981;52.476;16.656;2023-12-28T16:50:13;100200.10;;;4.70;81.71
84758;BME280;74981;52.476;16.656;2023-12-28T16:55:15;100204.14;;;4.72;81.96
84758;BME280;74981;52.476;16.656;2023-12-28T17:00:17;100201.63;;;4.75;82.18
84758;BME280;74981;52.476;16.656;2023-12-28T17:05:21;100199.11;;;4.76;82.30
84758;BME280;74981;52.476;16.656;2023-12-28T17:10:25;100203.56;;;4.76;82.32
84758;BME280;74981;52.476;16.656;2023-12-28T17:15:27;100198.98;;;4.83;82.34
84758;BME280;74981;52.476;16.656;2023-12-28T17:20:30;100195.08;;;4.94;82.39
84758;BME280;74981;52.476;16.656;2023-12-28T17:25:39;100196.48;;;5.01;82.08
84758;BME280;74981;52.476;16.656;2023-12-28T17:30:44;100199.71;;;5.03;81.67
84758;BME280;74981;52.476;16.656;2023-12-28T17:35:47;100202.52;;;5.01;81.75
84758;BME280;74981;52.476;16.656;2023-12-28T17:40:50;100205.77;;;5.08;81.62
84758;BME280;74981;52.476;16.656;2023-12-28T17:45:58;100206.43;;;5.14;81.35
84758;BME280;74981;52.476;16.656;2023-12-28T17:51:04;100209.14;;;5.13;81.26
84758;BME280;74981;52.476;16.656;2023-12-28T17:56:07;100199.20;;;5.08;81.29
84758;BME280;74981;52.476;16.656;2023-12-28T18:01:08;100200.17;;;5.01;81.35
84758;BME280;74981;52.476;16.656;2023-12-28T18:06:10;100201.66;;;5.04;81.19
84758;BME280;74981;52.476;16.656;2023-12-28T18:11:12;100206.41;;;5.07;81.20
84758;BME280;74981;52.476;16.656;2023-12-28T18:16:13;100209.30;;;5.06;81.28
84758;BME280;74981;52.476;16.656;2023-12-28T18:21:15;100214.80;;;5.01;81.17
84758;BME280;74981;52.476;16.656;2023-12-28T18:26:17;100219.67;;;4.95;81.48
84758;BME280;74981;52.476;16.656;2023-12-28T18:31:19;100217.98;;;4.93;81.13
84758;BME280;74981;52.476;16.656;2023-12-28T18:36:21;100214.71;;;4.94;81.57
84758;BME280;74981;52.476;16.656;2023-12-28T18:41:23;100216.23;;;4.93;81.54
84758;BME280;74981;52.476;16.656;2023-12-28T18:46:24;100218.93;;;4.90;81.62
84758;BME280;74981;52.476;16.656;2023-12-28T18:51:26;100215.38;;;4.90;81.50
84758;BME280;74981;52.476;16.656;2023-12-28T18:56:28;100220.70;;;4.95;81.55
84758;BME280;74981;52.476;16.656;2023-12-28T19:01:30;100216.05;;;4.95;81.89
84758;BME280;74981;52.476;16.656;2023-12-28T19:06:32;100214.63;;;4.90;81.75
84758;BME280;74981;52.476;16.656;2023-12-28T19:11:33;100209.58;;;4.79;81.49
84758;BME280;74981;52.476;16.656;2023-12-28T19:16:35;100205.41;;;4.70;81.47
84758;BME280;74981;52.476;16.656;2023-12-28T19:21:37;100198.70;;;4.62;81.39
84758;BME280;74981;52.476;16.656;2023-12-28T19:26:38;100195.98;;;4.54;81.65
84758;BME280;74981;52.476;16.656;2023-12-28T19:31:40;100191.83;;;4.51;82.23
84758;BME280;74981;52.476;16.656;2023-12-28T19:36:42;100193.48;;;4.55;82.44
84758;BME280;74981;52.476;16.656;2023-12-28T19:41:44;100195.34;;;4.61;82.54
84758;BME280;74981;52.476;16.656;2023-12-28T19:46:45;100196.84;;;4.63;82.84
84758;BME280;74981;52.476;16.656;2023-12-28T19:51:47;100197.46;;;4.61;82.61
84758;BME280;74981;52.476;16.656;2023-12-28T19:56:49;100200.07;;;4.57;82.85
84758;BME280;74981;52.476;16.656;2023-12-28T20:01:51;100199.40;;;4.57;82.79
84758;BME280;74981;52.476;16.656;2023-12-28T20:06:53;100198.52;;;4.56;82.40
84758;BME280;74981;52.476;16.656;2023-12-28T20:11:54;100196.48;;;4.53;82.60
84758;BME280;74981;52.476;16.656;2023-12-28T20:16:56;100193.70;;;4.47;82.71
84758;BME280;74981;52.476;16.656;2023-12-28T20:21:58;100189.19;;;4.39;83.17
84758;BME280;74981;52.476;16.656;2023-12-28T20:27:00;100191.60;;;4.41;83.16
84758;BME280;74981;52.476;16.656;2023-12-28T20:32:02;100192.20;;;4.45;83.20
84758;BME280;74981;52.476;16.656;2023-12-28T20:37:04;100192.22;;;4.45;83.23
84758;BME280;74981;52.476;16.656;2023-12-28T20:42:06;100187.34;;;4.43;83.39
84758;BME280;74981;52.476;16.656;2023-12-28T20:47:07;100190.63;;;4.48;83.20
84758;BME280;74981;52.476;16.656;2023-12-28T20:52:09;100186.67;;;4.51;83.03
84758;BME280;74981;52.476;16.656;2023-12-28T20:57:11;100192.23;;;4.50;83.37
84758;BME280;74981;52.476;16.656;2023-12-28T21:02:13;100188.54;;;4.47;82.86
84758;BME280;74981;52.476;16.656;2023-12-28T21:07:14;100182.64;;;4.48;83.10
84758;BME280;74981;52.476;16.656;2023-12-28T21:12:16;100182.30;;;4.47;82.97
84758;BME280;74981;52.476;16.656;2023-12-28T21:17:18;100179.31;;;4.44;83.04
84758;BME280;74981;52.476;16.656;2023-12-28T21:22:20;100181.50;;;4.40;83.26
84758;BME280;74981;52.476;16.656;2023-12-28T21:27:22;100173.61;;;4.45;83.16
84758;BME280;74981;52.476;16.656;2023-12-28T21:32:23;100171.92;;;4.48;83.26
84758;BME280;74981;52.476;16.656;2023-12-28T21:37:25;100168.33;;;4.49;83.23
84758;BME280;74981;52.476;16.656;2023-12-28T21:42:27;100169.23;;;4.49;83.24
84758;BME280;74981;52.476;16.656;2023-12-28T21:47:29;100164.11;;;4.54;83.13
84758;BME280;74981;52.476;16.656;2023-12-28T21:52:31;100160.94;;;4.59;83.44
84758;BME280;74981;52.476;16.656;2023-12-28T21:57:33;100161.35;;;4.60;83.05
84758;BME280;74981;52.476;16.656;2023-12-28T22:02:34;100164.48;;;4.61;83.25
84758;BME280;74981;52.476;16.656;2023-12-28T22:07:36;100158.19;;;4.67;83.57
84758;BME280;74981;52.476;16.656;2023-12-28T22:12:38;100158.27;;;4.74;83.08
84758;BME280;74981;52.476;16.656;2023-12-28T22:17:39;100161.35;;;4.76;83.16
84758;BME280;74981;52.476;16.656;2023-12-28T22:22:41;100162.08;;;4.75;83.16
84758;BME280;74981;52.476;16.656;2023-12-28T22:27:43;100157.30;;;4.80;83.16
84758;BME280;74981;52.476;16.656;2023-12-28T22:32:45;100153.64;;;4.85;82.85
84758;BME280;74981;52.476;16.656;2023-12-28T22:37:46;100159.92;;;4.84;82.76
84758;BME280;74981;52.476;16.656;2023-12-28T22:42:48;100161.29;;;4.79;82.83
84758;BME280;74981;52.476;16.656;2023-12-28T22:47:50;100160.13;;;4.73;82.78
84758;BME280;74981;52.476;16.656;2023-12-28T22:52:52;100151.39;;;4.71;82.77
84758;BME280;74981;52.476;16.656;2023-12-28T22:57:54;100151.81;;;4.70;82.42
84758;BME280;74981;52.476;16.656;2023-12-28T23:02:55;100155.48;;;4.66;82.83
84758;BME280;74981;52.476;16.656;2023-12-28T23:07:57;100141.16;;;4.57;82.70
84758;BME280;74981;52.476;16.656;2023-12-28T23:12:59;100136.47;;;4.48;82.70
84758;BME280;74981;52.476;16.656;2023-12-28T23:18:02;100130.63;;;4.46;82.57
84758;BME280;74981;52.476;16.656;2023-12-28T23:23:04;100129.39;;;4.43;82.65
84758;BME280;74981;52.476;16.656;2023-12-28T23:28:06;100116.98;;;4.37;82.98
84758;BME280;74981;52.476;16.656;2023-12-28T23:33:08;100110.17;;;4.31;82.79
84758;BME280;74981;52.476;16.656;2023-12-28T23:38:10;100103.21;;;4.31;82.95
84758;BME280;74981;52.476;16.656;2023-12-28T23:43:11;100103.27;;;4.33;83.07
84758;BME280;74981;52.476;16.656;2023-12-28T23:48:13;100098.73;;;4.30;83.10
84758;BME280;74981;52.476;16.656;2023-12-28T23:53:15;100090.27;;;4.26;83.63
84758;BME280;74981;52.476;16.656;2023-12-28T23:58:17;100080.30;;;4.27;83.33
